createdAt,value
2022-10-10T00:01:21.900Z,2.50
2022-10-10T00:03:49.386Z,1.50
2022-10-10T00:06:17.548Z,1.00
2022-10-10T00:08:45.665Z,1.15
2022-10-10T00:11:13.569Z,1.00
2022-10-10T00:13:41.102Z,0.93
2022-10-10T00:16:08.834Z,0.95
2022-10-10T00:18:36.576Z,0.75
2022-10-10T00:21:06.669Z,0.93
2022-10-10T00:23:34.063Z,0.70
2022-10-10T00:26:05.598Z,0.95
2022-10-10T00:28:39.159Z,2.78
2022-10-10T00:31:07.791Z,0.93
2022-10-10T00:33:35.550Z,1.15
2022-10-10T00:36:04.001Z,1.17
2022-10-10T00:38:33.110Z,0.70
2022-10-10T00:41:01.021Z,1.23
2022-10-10T00:43:29.210Z,0.85
2022-10-10T00:45:56.809Z,1.05
2022-10-10T00:48:29.696Z,1.23
2022-10-10T00:53:29.753Z,0.60
2022-10-10T00:58:24.960Z,1.38
2022-10-10T01:00:52.852Z,1.10
2022-10-10T01:03:20.835Z,0.80
2022-10-10T01:05:49.083Z,1.13
2022-10-10T01:08:17.485Z,0.93
2022-10-10T01:11:14.261Z,0.80
2022-10-10T01:13:53.084Z,1.33
2022-10-10T01:16:30.307Z,0.93
2022-10-10T01:19:06.054Z,0.90
2022-10-10T01:21:38.813Z,0.95
2022-10-10T01:24:33.656Z,1.17
2022-10-10T01:27:30.271Z,0.90
2022-10-10T01:30:01.629Z,1.23
2022-10-10T01:32:29.037Z,1.20
2022-10-10T01:35:15.273Z,2.05
2022-10-10T01:38:07.059Z,2.05
2022-10-10T01:40:39.884Z,1.23
2022-10-10T01:43:09.641Z,1.38
2022-10-10T01:45:37.168Z,1.38
2022-10-10T01:48:07.010Z,1.60
2022-10-10T01:50:39.890Z,1.55
2022-10-10T01:53:30.369Z,1.08
2022-10-10T01:56:07.860Z,0.90
2022-10-10T01:58:44.461Z,1.77
2022-10-10T02:01:18.218Z,0.95
2022-10-10T02:03:47.921Z,1.00
2022-10-10T02:06:20.486Z,1.30
2022-10-10T02:09:07.863Z,1.25
2022-10-10T02:11:37.586Z,1.70
2022-10-10T02:14:19.752Z,1.23
2022-10-10T02:16:50.494Z,0.50
2022-10-10T02:19:19.635Z,0.88
2022-10-10T02:21:48.468Z,0.90
2022-10-10T02:24:16.708Z,0.95
2022-10-10T02:26:45.825Z,0.88
2022-10-10T02:29:22.159Z,0.88
2022-10-10T02:32:12.726Z,0.82
2022-10-10T02:34:41.903Z,1.05
2022-10-10T02:37:13.232Z,1.55
2022-10-10T02:39:45.982Z,1.08
2022-10-10T02:42:14.791Z,0.70
2022-10-10T02:44:42.481Z,0.55
2022-10-10T02:47:09.962Z,1.17
2022-10-10T02:49:37.502Z,0.85
2022-10-10T02:52:05.382Z,1.08
2022-10-10T02:54:34.737Z,0.80
2022-10-10T02:57:02.193Z,1.00
2022-10-10T02:59:29.594Z,1.05
2022-10-10T03:01:57.159Z,1.35
2022-10-10T03:04:24.557Z,0.82
2022-10-10T03:06:52.755Z,0.93
2022-10-10T03:09:20.241Z,1.00
2022-10-10T03:11:47.643Z,1.67
2022-10-10T03:14:15.093Z,3.15
2022-10-10T03:16:42.572Z,3.60
2022-10-10T03:19:10.232Z,3.90
2022-10-10T03:21:38.694Z,5.47
2022-10-10T03:24:06.486Z,5.38
2022-10-10T03:26:34.034Z,2.25
2022-10-10T03:29:02.534Z,2.33
2022-10-10T03:31:30.075Z,2.05
2022-10-10T03:33:57.519Z,4.60
2022-10-10T03:36:24.929Z,3.97
2022-10-10T03:38:53.132Z,4.53
2022-10-10T03:41:20.661Z,3.83
2022-10-10T03:43:48.117Z,2.53
2022-10-10T03:46:16.563Z,3.28
2022-10-10T03:48:44.773Z,2.60
2022-10-10T03:51:12.722Z,2.17
2022-10-10T03:53:40.574Z,2.53
2022-10-10T03:56:08.039Z,2.10
2022-10-10T03:58:35.498Z,1.85
2022-10-10T04:01:03.699Z,1.60
2022-10-10T04:03:31.338Z,2.30
2022-10-10T04:05:58.758Z,1.45
2022-10-10T04:08:26.415Z,1.15
2022-10-10T04:10:54.456Z,1.50
2022-10-10T04:13:22.479Z,1.33
2022-10-10T04:15:53.959Z,0.85
2022-10-10T04:18:21.789Z,1.27
2022-10-10T04:20:49.040Z,1.27
2022-10-10T04:23:16.746Z,1.15
2022-10-10T04:25:44.696Z,0.65
2022-10-10T04:28:16.632Z,1.27
2022-10-10T04:30:44.063Z,1.20
2022-10-10T04:33:11.682Z,1.00
2022-10-10T04:35:39.774Z,1.05
2022-10-10T04:38:07.472Z,1.02
2022-10-10T04:40:36.369Z,0.90
2022-10-10T04:43:03.928Z,1.08
2022-10-10T04:45:36.558Z,0.88
2022-10-10T04:48:05.348Z,1.67
2022-10-10T04:50:33.002Z,1.33
2022-10-10T04:53:00.456Z,1.95
2022-10-10T04:55:27.893Z,1.65
2022-10-10T04:57:55.312Z,2.05
2022-10-10T05:00:22.790Z,2.17
2022-10-10T05:02:50.823Z,2.42
2022-10-10T05:05:18.557Z,2.28
2022-10-10T05:07:46.017Z,1.33
2022-10-10T05:10:14.638Z,1.27
2022-10-10T05:12:42.194Z,1.13
2022-10-10T05:15:09.966Z,1.08
2022-10-10T05:17:37.461Z,1.55
2022-10-10T05:20:05.267Z,1.02
2022-10-10T05:22:32.773Z,1.20
2022-10-10T05:25:00.611Z,1.27
2022-10-10T05:27:28.639Z,1.05
2022-10-10T05:29:58.888Z,1.98
2022-10-10T05:32:26.429Z,1.45
2022-10-10T05:34:53.869Z,1.17
2022-10-10T05:37:21.698Z,1.80
2022-10-10T05:39:54.350Z,2.60
2022-10-10T05:44:49.702Z,1.63
2022-10-10T05:47:17.566Z,2.30
2022-10-10T05:49:45.047Z,2.20
2022-10-10T05:52:12.579Z,2.80
2022-10-10T05:54:40.156Z,2.50
2022-10-10T05:57:07.638Z,1.88
2022-10-10T05:59:35.115Z,2.03
2022-10-10T06:02:02.562Z,2.90
2022-10-10T06:04:30.024Z,1.83
2022-10-10T06:06:57.562Z,2.10
2022-10-10T06:09:25.000Z,1.10
2022-10-10T06:11:52.435Z,1.70
2022-10-10T06:14:19.877Z,2.00
2022-10-10T06:16:47.327Z,1.70
2022-10-10T06:19:15.198Z,1.30
2022-10-10T06:21:43.667Z,1.15
2022-10-10T06:24:11.627Z,0.90
2022-10-10T06:26:39.078Z,1.00
2022-10-10T06:29:07.989Z,1.45
2022-10-10T06:31:39.969Z,1.33
2022-10-10T06:34:07.768Z,0.50
2022-10-10T06:36:35.275Z,1.30
2022-10-10T06:39:02.769Z,1.90
2022-10-10T06:41:30.287Z,1.08
2022-10-10T06:43:57.737Z,1.50
2022-10-10T06:46:25.357Z,1.50
2022-10-10T06:48:52.834Z,1.10
2022-10-10T06:51:20.278Z,1.65
2022-10-10T06:53:48.821Z,0.90
2022-10-10T06:56:27.125Z,1.95
2022-10-10T06:58:55.241Z,0.85
2022-10-10T07:01:23.767Z,1.13
2022-10-10T07:03:51.312Z,0.98
2022-10-10T07:06:21.832Z,1.70
2022-10-10T07:08:49.256Z,0.90
2022-10-10T07:11:16.723Z,1.80
2022-10-10T07:13:44.169Z,1.00
2022-10-10T07:16:11.897Z,1.20
2022-10-10T07:18:39.458Z,1.08
2022-10-10T07:21:07.977Z,1.27
2022-10-10T07:23:37.204Z,1.05
2022-10-10T07:26:12.177Z,0.82
2022-10-10T07:28:39.830Z,1.30
2022-10-10T07:31:11.392Z,0.98
2022-10-10T07:33:47.408Z,1.92
2022-10-10T07:36:17.283Z,0.98
2022-10-10T07:38:45.126Z,1.13
2022-10-10T07:41:13.728Z,1.02
2022-10-10T07:43:41.216Z,0.82
2022-10-10T07:46:14.573Z,1.27
2022-10-10T07:48:42.117Z,0.93
2022-10-10T07:51:09.637Z,0.93
2022-10-10T07:53:37.137Z,0.85
2022-10-10T07:56:08.117Z,1.08
2022-10-10T07:58:36.065Z,1.35
2022-10-10T08:01:08.664Z,1.13
2022-10-10T08:03:36.356Z,1.23
2022-10-10T08:06:05.456Z,1.02
2022-10-10T08:08:34.359Z,1.00
2022-10-10T08:11:04.587Z,1.15
2022-10-10T08:13:32.079Z,1.35
2022-10-10T08:15:59.688Z,1.23
2022-10-10T08:18:27.277Z,1.27
2022-10-10T08:21:01.627Z,1.08
2022-10-10T08:23:29.303Z,1.08
2022-10-10T08:25:59.628Z,1.40
2022-10-10T08:28:27.404Z,0.93
2022-10-10T08:30:54.783Z,1.30
2022-10-10T08:33:22.291Z,1.17
2022-10-10T08:35:49.741Z,1.17
2022-10-10T08:38:17.173Z,0.80
2022-10-10T08:40:48.948Z,1.08
2022-10-10T08:43:23.131Z,1.30
2022-10-10T08:45:52.067Z,0.77
2022-10-10T08:48:22.943Z,1.35
2022-10-10T08:50:54.342Z,1.55
2022-10-10T08:53:28.348Z,1.80
2022-10-10T08:55:56.294Z,1.33
2022-10-10T08:58:27.367Z,0.88
2022-10-10T09:00:58.079Z,0.93
2022-10-10T09:03:25.765Z,1.67
2022-10-10T09:06:13.417Z,2.25
2022-10-10T09:09:13.402Z,1.15
2022-10-10T09:11:50.042Z,1.02
2022-10-10T09:14:17.423Z,1.35
2022-10-10T09:17:00.708Z,1.30
2022-10-10T09:19:44.014Z,1.33
2022-10-10T09:22:17.210Z,1.40
2022-10-10T09:27:20.080Z,1.13
2022-10-10T09:29:50.332Z,1.77
2022-10-10T09:32:25.161Z,1.42
2022-10-10T09:35:11.501Z,1.08
2022-10-10T09:37:47.383Z,0.80
2022-10-10T09:40:23.655Z,1.02
2022-10-10T09:42:51.236Z,1.27
2022-10-10T09:45:20.426Z,1.00
2022-10-10T09:47:49.680Z,1.40
2022-10-10T09:50:17.437Z,1.90
2022-10-10T09:52:46.800Z,0.80
2022-10-10T09:55:24.508Z,1.90
2022-10-10T09:57:55.865Z,1.20
2022-10-10T10:00:34.632Z,1.63
2022-10-10T10:03:05.048Z,1.23
2022-10-10T10:05:32.800Z,1.45
2022-10-10T10:08:00.277Z,1.60
2022-10-10T10:10:28.461Z,1.20
2022-10-10T10:12:56.220Z,1.10
2022-10-10T10:15:25.906Z,1.25
2022-10-10T10:18:12.156Z,1.10
2022-10-10T10:20:42.186Z,1.00
2022-10-10T10:23:29.945Z,1.77
2022-10-10T10:26:05.345Z,0.85
2022-10-10T10:28:33.578Z,1.00
2022-10-10T10:31:01.017Z,1.10
2022-10-10T10:33:28.697Z,0.88
2022-10-10T10:35:59.359Z,0.95
2022-10-10T10:38:29.835Z,1.10
2022-10-10T10:41:12.908Z,1.02
2022-10-10T10:43:48.000Z,1.58
2022-10-10T10:46:37.361Z,0.80
2022-10-10T10:49:25.375Z,1.02
2022-10-10T10:51:59.465Z,1.52
2022-10-10T10:54:28.228Z,1.30
2022-10-10T10:57:06.568Z,1.00
2022-10-10T11:00:21.920Z,1.30
2022-10-10T11:02:54.103Z,1.10
2022-10-10T11:07:49.290Z,0.70
2022-10-10T11:10:19.771Z,1.33
2022-10-10T11:13:05.787Z,0.80
2022-10-10T11:19:00.345Z,0.90
2022-10-10T11:21:28.560Z,0.95
2022-10-10T11:23:55.987Z,1.00
2022-10-10T11:26:29.235Z,1.10
2022-10-10T11:29:01.289Z,0.85
2022-10-10T11:31:31.596Z,1.70
2022-10-10T11:34:01.498Z,1.30
2022-10-10T11:36:36.471Z,1.38
2022-10-10T11:39:24.402Z,2.05
2022-10-10T11:41:58.139Z,1.65
2022-10-10T11:44:42.870Z,1.80
2022-10-10T11:47:13.841Z,1.13
2022-10-10T11:49:52.537Z,1.02
2022-10-10T11:52:34.182Z,1.10
2022-10-10T11:55:15.883Z,1.08
2022-10-10T11:57:43.350Z,0.80
2022-10-10T12:00:14.668Z,1.00
2022-10-10T12:02:43.181Z,1.02
2022-10-10T12:05:24.426Z,1.10
2022-10-10T12:07:51.842Z,0.75
2022-10-10T12:10:21.655Z,1.02
2022-10-10T12:12:50.290Z,1.10
2022-10-10T12:15:29.058Z,0.57
2022-10-10T12:17:56.827Z,1.00
2022-10-10T12:20:24.226Z,0.80
2022-10-10T12:23:10.630Z,0.73
2022-10-10T12:25:42.839Z,1.27
2022-10-10T12:28:16.201Z,1.20
2022-10-10T12:30:58.243Z,0.75
2022-10-10T12:33:32.409Z,0.85
2022-10-10T12:36:35.453Z,1.00
2022-10-10T12:39:04.353Z,0.75
2022-10-10T12:41:54.828Z,1.00
2022-10-10T12:44:45.615Z,1.05
2022-10-10T12:47:16.237Z,1.20
2022-10-10T12:49:58.131Z,1.67
2022-10-10T12:52:28.781Z,2.60
2022-10-10T12:55:06.552Z,1.42
2022-10-10T12:57:37.935Z,1.38
2022-10-10T13:00:06.989Z,1.80
2022-10-10T13:02:35.199Z,1.77
2022-10-10T13:05:03.444Z,1.50
2022-10-10T13:07:31.295Z,1.05
2022-10-10T13:10:06.702Z,1.40
2022-10-10T13:12:34.907Z,1.00
2022-10-10T13:15:02.534Z,1.88
2022-10-10T13:17:31.421Z,1.45
2022-10-10T13:20:01.848Z,1.63
2022-10-10T13:22:30.866Z,1.42
2022-10-10T13:24:59.229Z,1.27
2022-10-10T13:27:34.387Z,0.70
2022-10-10T13:30:02.407Z,0.80
2022-10-10T13:32:34.464Z,1.20
2022-10-10T13:35:04.332Z,0.95
2022-10-10T13:37:32.065Z,0.52
2022-10-10T13:39:59.896Z,0.98
2022-10-10T13:42:50.027Z,1.50
2022-10-10T13:45:29.291Z,1.17
2022-10-10T13:48:06.820Z,1.15
2022-10-10T13:50:54.441Z,0.93
2022-10-10T13:53:25.164Z,0.90
2022-10-10T13:56:12.868Z,1.15
2022-10-10T13:58:46.386Z,1.00
2022-10-10T14:01:19.781Z,0.40
2022-10-10T14:03:48.356Z,1.15
2022-10-10T14:06:22.345Z,0.77
2022-10-10T14:08:50.257Z,0.68
2022-10-10T14:11:23.196Z,0.38
2022-10-10T14:13:52.024Z,0.55
2022-10-10T14:16:19.488Z,0.52
2022-10-10T14:18:47.382Z,0.68
2022-10-10T14:21:15.808Z,0.32
2022-10-10T14:23:43.290Z,0.60
2022-10-10T14:26:13.842Z,1.42
2022-10-10T14:28:43.429Z,1.13
2022-10-10T14:31:11.203Z,0.40
2022-10-10T14:33:38.723Z,0.47
2022-10-10T14:36:07.229Z,0.40
2022-10-10T14:38:34.665Z,0.55
2022-10-10T14:41:05.267Z,0.75
2022-10-10T14:43:33.131Z,0.38
2022-10-10T14:46:00.606Z,0.90
2022-10-10T14:48:29.250Z,0.60
2022-10-10T14:50:58.441Z,0.28
2022-10-10T14:53:25.935Z,0.30
2022-10-10T14:55:56.278Z,0.57
2022-10-10T14:58:24.735Z,0.30
2022-10-10T15:00:53.696Z,0.40
2022-10-10T15:03:21.753Z,0.40
2022-10-10T15:05:49.664Z,0.60
2022-10-10T15:08:18.741Z,0.63
2022-10-10T15:10:47.136Z,0.65
2022-10-10T15:13:15.321Z,0.32
2022-10-10T15:15:44.014Z,0.50
2022-10-10T15:18:32.074Z,0.50
2022-10-10T15:20:59.120Z,0.43
2022-10-10T15:23:27.639Z,0.52
2022-10-10T15:25:55.049Z,0.50
2022-10-10T15:28:22.830Z,0.35
2022-10-10T15:30:50.329Z,1.00
2022-10-10T15:33:17.778Z,0.82
2022-10-10T15:36:08.052Z,0.40
2022-10-10T15:38:34.602Z,0.40
2022-10-10T15:41:04.038Z,0.57
2022-10-10T15:43:32.144Z,0.85
2022-10-10T15:45:59.616Z,0.98
2022-10-10T15:48:27.082Z,0.40
2022-10-10T15:50:54.464Z,0.45
2022-10-10T15:53:21.872Z,0.30
2022-10-10T15:55:49.312Z,0.40
2022-10-10T15:58:19.866Z,0.32
2022-10-10T16:00:47.309Z,0.47
2022-10-10T16:03:14.874Z,0.40
2022-10-10T16:05:43.153Z,0.45
2022-10-10T16:08:16.811Z,1.15
2022-10-10T16:10:44.563Z,0.40
2022-10-10T16:13:12.569Z,0.20
2022-10-10T16:15:40.009Z,0.35
2022-10-10T16:18:08.193Z,0.73
2022-10-10T16:20:36.578Z,0.40
2022-10-10T16:23:04.005Z,0.43
2022-10-10T16:25:31.454Z,1.02
2022-10-10T16:27:59.415Z,0.82
2022-10-10T16:30:26.838Z,0.68
2022-10-10T16:32:54.621Z,0.52
2022-10-10T16:35:22.669Z,0.35
2022-10-10T16:37:50.103Z,0.40
2022-10-10T16:40:20.415Z,0.40
2022-10-10T16:42:51.075Z,0.55
2022-10-10T16:45:18.705Z,0.60
2022-10-10T16:47:46.250Z,0.30
2022-10-10T16:50:14.300Z,0.30
2022-10-10T16:52:43.241Z,0.30
2022-10-10T16:55:12.461Z,0.50
2022-10-10T16:57:40.857Z,0.43
2022-10-10T17:00:09.498Z,0.32
2022-10-10T17:02:39.283Z,0.93
2022-10-10T17:05:06.958Z,0.47
2022-10-10T17:07:35.493Z,0.20
2022-10-10T17:10:03.539Z,0.20
2022-10-10T17:12:30.904Z,0.40
2022-10-10T17:14:58.322Z,1.10
2022-10-10T17:17:25.865Z,0.65
2022-10-10T17:19:54.739Z,0.50
2022-10-10T17:22:22.367Z,0.43
2022-10-10T17:24:50.268Z,0.50
2022-10-10T17:27:17.654Z,0.77
2022-10-10T17:29:45.320Z,0.68
2022-10-10T17:32:12.819Z,0.50
2022-10-10T17:34:40.429Z,0.40
2022-10-10T17:37:08.524Z,0.40
2022-10-10T17:39:36.194Z,0.47
2022-10-10T17:42:07.173Z,0.57
2022-10-10T17:44:40.325Z,1.05
2022-10-10T17:47:11.287Z,0.47
2022-10-10T17:49:41.736Z,0.50
2022-10-10T17:52:09.763Z,0.40
2022-10-10T17:54:37.858Z,0.60
2022-10-10T17:57:05.893Z,0.47
2022-10-10T17:59:33.999Z,0.30
2022-10-10T18:02:04.418Z,0.70
2022-10-10T18:04:32.808Z,0.63
2022-10-10T18:07:00.224Z,0.40
2022-10-10T18:09:27.745Z,0.30
2022-10-10T18:11:56.415Z,0.60
2022-10-10T18:14:24.275Z,0.38
2022-10-10T18:16:51.934Z,0.43
2022-10-10T18:19:19.530Z,0.60
2022-10-10T18:21:47.355Z,0.52
2022-10-10T18:24:14.770Z,0.70
2022-10-10T18:26:42.309Z,0.40
2022-10-10T18:29:09.918Z,0.50
2022-10-10T18:31:39.663Z,0.75
2022-10-10T18:34:07.952Z,0.40
2022-10-10T18:36:36.700Z,0.60
2022-10-10T18:39:06.254Z,1.23
2022-10-10T18:41:34.909Z,0.43
2022-10-10T18:44:06.988Z,0.50
2022-10-10T18:46:36.095Z,0.23
2022-10-10T18:49:05.458Z,0.30
2022-10-10T18:51:33.030Z,0.43
2022-10-10T18:54:03.714Z,0.30
2022-10-10T18:56:32.661Z,0.30
2022-10-10T18:59:01.934Z,0.65
2022-10-10T19:01:30.787Z,0.20
2022-10-10T19:03:58.894Z,0.38
2022-10-10T19:06:26.967Z,0.25
2022-10-10T19:08:58.168Z,0.38
2022-10-10T19:11:30.064Z,0.28
2022-10-10T19:13:59.412Z,0.28
2022-10-10T19:16:27.126Z,0.40
2022-10-10T19:18:58.484Z,0.45
2022-10-10T19:21:26.786Z,0.63
2022-10-10T19:23:54.264Z,0.45
2022-10-10T19:26:22.289Z,0.50
2022-10-10T19:28:49.843Z,0.40
2022-10-10T19:31:18.209Z,0.40
2022-10-10T19:33:46.052Z,0.45
2022-10-10T19:36:14.081Z,0.80
2022-10-10T19:38:42.353Z,0.52
2022-10-10T19:41:11.546Z,0.20
2022-10-10T19:43:39.086Z,0.40
2022-10-10T19:46:07.623Z,0.32
2022-10-10T19:48:37.538Z,0.38
2022-10-10T19:51:06.642Z,0.43
2022-10-10T19:53:36.833Z,0.20
2022-10-10T19:56:07.711Z,0.28
2022-10-10T19:58:36.604Z,0.55
2022-10-10T20:01:11.207Z,0.98
2022-10-10T20:03:38.992Z,0.28
2022-10-10T20:06:07.044Z,0.40
2022-10-10T20:08:34.661Z,0.30
2022-10-10T20:11:02.285Z,0.40
2022-10-10T20:13:29.839Z,0.52
2022-10-10T20:16:00.070Z,0.57
2022-10-10T20:18:28.099Z,0.15
2022-10-10T20:20:56.045Z,0.30
2022-10-10T20:23:27.771Z,0.40
2022-10-10T20:25:55.486Z,0.30
2022-10-10T20:28:23.192Z,0.22
2022-10-10T20:30:51.584Z,0.15
2022-10-10T20:33:20.859Z,0.60
2022-10-10T20:35:55.139Z,0.70
2022-10-10T20:38:29.780Z,0.50
2022-10-10T20:40:57.359Z,0.30
2022-10-10T20:43:24.792Z,0.50
2022-10-10T20:45:52.309Z,0.30
2022-10-10T20:48:19.808Z,0.30
2022-10-10T20:50:48.143Z,0.80
2022-10-10T20:53:15.815Z,0.40
2022-10-10T20:55:43.209Z,0.45
2022-10-10T20:58:12.162Z,0.50
2022-10-10T21:00:43.097Z,0.30
2022-10-10T21:03:10.817Z,0.50
2022-10-10T21:05:38.286Z,0.20
2022-10-10T21:08:05.868Z,0.30
2022-10-10T21:10:33.673Z,0.45
2022-10-10T21:13:01.115Z,0.40
2022-10-10T21:15:28.590Z,0.30
2022-10-10T21:17:56.435Z,0.22
2022-10-10T21:20:23.964Z,0.25
2022-10-10T21:22:51.418Z,0.30
2022-10-10T21:25:18.833Z,0.20
2022-10-10T21:27:49.174Z,0.85
2022-10-10T21:30:16.705Z,0.50
2022-10-10T21:32:44.128Z,0.43
2022-10-10T21:35:11.445Z,0.50
2022-10-10T21:37:38.998Z,0.77
2022-10-10T21:40:06.813Z,0.63
2022-10-10T21:42:34.247Z,0.90
2022-10-10T21:45:01.749Z,0.93
2022-10-10T21:47:29.218Z,1.23
2022-10-10T21:49:56.975Z,0.82
2022-10-10T21:52:24.451Z,0.52
2022-10-10T21:54:52.825Z,0.98
2022-10-10T21:57:21.489Z,0.68
2022-10-10T21:59:48.920Z,0.60
2022-10-10T22:02:16.483Z,0.30
2022-10-10T22:04:43.963Z,0.30
2022-10-10T22:07:11.431Z,0.52
2022-10-10T22:09:38.882Z,0.65
2022-10-10T22:12:06.581Z,0.68
2022-10-10T22:14:36.697Z,0.50
2022-10-10T22:17:04.148Z,0.30
2022-10-10T22:19:31.573Z,0.40
2022-10-10T22:21:59.015Z,0.52
2022-10-10T22:24:26.499Z,0.50
2022-10-10T22:26:53.928Z,0.80
2022-10-10T22:29:21.373Z,1.15
2022-10-10T22:31:48.814Z,0.50
2022-10-10T22:34:16.319Z,0.20
2022-10-10T22:36:43.898Z,0.52
2022-10-10T22:39:11.797Z,0.60
2022-10-10T22:41:39.427Z,0.43
2022-10-10T22:44:06.962Z,1.20
2022-10-10T22:46:34.406Z,0.47
2022-10-10T22:49:01.868Z,0.70
2022-10-10T22:51:29.365Z,0.50
2022-10-10T22:53:56.788Z,0.60
2022-10-10T22:56:24.264Z,0.57
2022-10-10T22:58:52.618Z,0.68
2022-10-10T23:01:23.055Z,0.22
2022-10-10T23:03:50.749Z,0.65
2022-10-10T23:06:18.355Z,0.52
2022-10-10T23:08:45.871Z,1.17
2022-10-10T23:11:13.321Z,0.68
2022-10-10T23:13:40.799Z,0.73
2022-10-10T23:16:12.668Z,0.52
2022-10-10T23:18:40.073Z,0.52
2022-10-10T23:21:08.277Z,0.65
2022-10-10T23:23:35.693Z,0.63
2022-10-10T23:26:07.860Z,0.50
2022-10-10T23:28:36.263Z,0.43
2022-10-10T23:31:05.173Z,0.80
2022-10-10T23:33:36.728Z,0.88
2022-10-10T23:36:08.784Z,0.90
2022-10-10T23:38:36.839Z,0.68
2022-10-10T23:41:04.287Z,0.60
2022-10-10T23:43:31.660Z,0.90
2022-10-10T23:45:59.133Z,1.08
2022-10-10T23:48:26.619Z,0.90
2022-10-10T23:50:54.044Z,0.70
2022-10-10T23:53:21.514Z,1.05
2022-10-10T23:55:49.523Z,0.70
2022-10-10T23:58:17.319Z,0.80
